Blue Bay — V2CE6 — position and weather

sailwx.info

Track history (hours):
 
Tides and Currents Weather Stations Pressure Air Temp Water Temp Dewpoint Dewpoint Depression Visibility Wind Speed Wind Dir Waves Ship Positions

Blue Bay

Last reported at 2014-Nov-01 00:24 UTC. Time now 2014-Nov-01 07:43 UTC.
Position N 43°24' W 002°13'.

Length 89 m; draft 5.5 m.

Type: Cargo ship. MMSI: 304519000.

Date/timePositionNaut miles runAvg speedWind from/ knotsBaromVisibWave heightAir tempDewpointWater temp
2014-Nov-01 00:24N 43°24' W 002°13'910.3
2014-Oct-31 23:32N 43°22' W 002°01'5 0.2
2014-Oct-30 22:19N 43°19' W 001°55'14 0.3
2014-Oct-29 05:33N 43°31' W 002°05'9 8.5
2014-Oct-29 04:33N 43°38' W 002°12'8 8.4
2014-Oct-29 03:32N 43°45' W 002°19'33 8.4
2014-Oct-28 23:33N 44°12' W 002°45'21 8.7
2014-Oct-28 21:08N 44°30' W 003°02'6 8.9
2014-Oct-28 20:29N 44°34' W 003°07'9 9.4
2014-Oct-28 19:33N 44°41' W 003°14'9 9.1
2014-Oct-28 18:33N 44°49' W 003°21'12 9.0
2014-Oct-28 17:14N 44°58' W 003°31'7 9.0
2014-Oct-28 16:29N 45°04' W 003°37'56 9.2
2014-Oct-28 10:20N 45°50' W 004°22'7 9.3
2014-Oct-28 09:33N 45°56' W 004°28'11 9.0
2014-Oct-28 08:19N 46°06' W 004°36'139 9.2
2014-Oct-27 17:08N 47°59' W 006°35'243 8.8
2014-Oct-26 13:33N 51°18' W 010°10'46 7.7
2014-Oct-26 07:33N 51°58' W 010°47'12 5.9
2014-Oct-26 05:33N 52°09' W 010°38'5 5.3
2014-Oct-26 04:33N 52°12' W 010°31'6 5.4
2014-Oct-26 03:32N 52°15' W 010°24'5 5.6
2014-Oct-26 02:33N 52°18' W 010°17'6 5.7
2014-Oct-26 01:33N 52°21' W 010°09'6 5.9
2014-Oct-26 00:33N 52°25' W 010°01'6 6.4
2014-Oct-25 23:32N 52°29' W 009°53'8 7.6
2014-Oct-25 22:27N 52°34' W 009°42'0 0.0
2014-Oct-24 01:05N 52°34' W 009°42'4 7.0
2014-Oct-24 00:31N 52°31' W 009°47'7 6.8
2014-Oct-23 23:26N 52°27' W 009°57'6 6.7
2014-Oct-23 22:33N 52°23' W 010°04'9 7.7
2014-Oct-23 21:26N 52°18' W 010°16'7 8.0
2014-Oct-23 20:33N 52°15' W 010°25'7 7.3
2014-Oct-23 19:33N 52°10' W 010°35'17 8.5
2014-Oct-23 17:33N 51°55' W 010°46'22 9.1
2014-Oct-23 15:07N 51°36' W 010°27'7 8.4
2014-Oct-23 14:20N 51°32' W 010°19'7 8.4
2014-Oct-23 13:33N 51°28' W 010°10'9 8.5
2014-Oct-23 12:33N 51°24' W 009°58'17 8.5
2014-Oct-23 10:33N 51°21' W 009°31'9 9.0
2014-Oct-23 09:33N 51°24' W 009°17'13 9.8
2014-Oct-23 08:11N 51°26' W 008°56'610.2
2014-Oct-23 07:33N 51°27' W 008°46'10 9.8
2014-Oct-23 06:33N 51°30' W 008°31'10 9.6
2014-Oct-23 05:33N 51°34' W 008°17'10 9.8
2014-Oct-23 04:33N 51°38' W 008°02'10 9.6
2014-Oct-23 03:33N 51°42' W 007°48'10 9.6
2014-Oct-23 02:33N 51°46' W 007°34'10 9.8
2014-Oct-23 01:33N 51°50' W 007°20'1010.1
2014-Oct-23 00:33N 51°53' W 007°04'1010.3
2014-Oct-22 23:34N 51°57' W 006°49'1010.3
2014-Oct-22 22:33N 52°01' W 006°34'10 9.8
2014-Oct-22 21:33N 52°05' W 006°19'8 8.5
2014-Oct-22 20:33N 52°10' W 006°08'8 8.0
2014-Oct-22 19:33N 52°17' W 006°05'9 8.6
2014-Oct-22 18:33N 52°26' W 006°04'8 7.8
2014-Oct-22 17:33N 52°34' W 006°03'70 9.9
2014-Oct-22 10:28N 53°44' W 006°00'9 9.8
2014-Oct-22 09:33N 53°53' W 006°01'9 8.9
2014-Oct-22 08:33N 54°02' W 006°05'  
Track history (hours):
 
Tides and Currents Weather Stations Pressure Air Temp Water Temp Dewpoint Dewpoint Depression Visibility Wind Speed Wind Dir Waves Ship Positions

Blue Bay

Last reported at 2014-Nov-01 00:24 UTC. Time now 2014-Nov-01 07:43 UTC.
Position N 43°24' W 002°13'.

Length 89 m; draft 5.5 m.

Type: Cargo ship. MMSI: 304519000.

Date/timePositionNaut miles runAvg speedWind from/ knotsBaromVisibWave heightAir tempDewpointWater temp
2014-Nov-01 00:24N 43°24' W 002°13'910.3
2014-Oct-31 23:32N 43°22' W 002°01'5 0.2
2014-Oct-30 22:19N 43°19' W 001°55'14 0.3
2014-Oct-29 05:33N 43°31' W 002°05'9 8.5
2014-Oct-29 04:33N 43°38' W 002°12'8 8.4
2014-Oct-29 03:32N 43°45' W 002°19'33 8.4
2014-Oct-28 23:33N 44°12' W 002°45'21 8.7
2014-Oct-28 21:08N 44°30' W 003°02'6 8.9
2014-Oct-28 20:29N 44°34' W 003°07'9 9.4
2014-Oct-28 19:33N 44°41' W 003°14'9 9.1
2014-Oct-28 18:33N 44°49' W 003°21'12 9.0
2014-Oct-28 17:14N 44°58' W 003°31'7 9.0
2014-Oct-28 16:29N 45°04' W 003°37'56 9.2
2014-Oct-28 10:20N 45°50' W 004°22'7 9.3
2014-Oct-28 09:33N 45°56' W 004°28'11 9.0
2014-Oct-28 08:19N 46°06' W 004°36'139 9.2
2014-Oct-27 17:08N 47°59' W 006°35'243 8.8
2014-Oct-26 13:33N 51°18' W 010°10'46 7.7
2014-Oct-26 07:33N 51°58' W 010°47'12 5.9
2014-Oct-26 05:33N 52°09' W 010°38'5 5.3
2014-Oct-26 04:33N 52°12' W 010°31'6 5.4
2014-Oct-26 03:32N 52°15' W 010°24'5 5.6
2014-Oct-26 02:33N 52°18' W 010°17'6 5.7
2014-Oct-26 01:33N 52°21' W 010°09'6 5.9
2014-Oct-26 00:33N 52°25' W 010°01'6 6.4
2014-Oct-25 23:32N 52°29' W 009°53'8 7.6
2014-Oct-25 22:27N 52°34' W 009°42'0 0.0
2014-Oct-24 01:05N 52°34' W 009°42'4 7.0
2014-Oct-24 00:31N 52°31' W 009°47'7 6.8
2014-Oct-23 23:26N 52°27' W 009°57'6 6.7
2014-Oct-23 22:33N 52°23' W 010°04'9 7.7
2014-Oct-23 21:26N 52°18' W 010°16'7 8.0
2014-Oct-23 20:33N 52°15' W 010°25'7 7.3
2014-Oct-23 19:33N 52°10' W 010°35'17 8.5
2014-Oct-23 17:33N 51°55' W 010°46'22 9.1
2014-Oct-23 15:07N 51°36' W 010°27'7 8.4
2014-Oct-23 14:20N 51°32' W 010°19'7 8.4
2014-Oct-23 13:33N 51°28' W 010°10'9 8.5
2014-Oct-23 12:33N 51°24' W 009°58'17 8.5
2014-Oct-23 10:33N 51°21' W 009°31'9 9.0
2014-Oct-23 09:33N 51°24' W 009°17'13 9.8
2014-Oct-23 08:11N 51°26' W 008°56'610.2
2014-Oct-23 07:33N 51°27' W 008°46'10 9.8
2014-Oct-23 06:33N 51°30' W 008°31'10 9.6
2014-Oct-23 05:33N 51°34' W 008°17'10 9.8
2014-Oct-23 04:33N 51°38' W 008°02'10 9.6
2014-Oct-23 03:33N 51°42' W 007°48'10 9.6
2014-Oct-23 02:33N 51°46' W 007°34'10 9.8
2014-Oct-23 01:33N 51°50' W 007°20'1010.1
2014-Oct-23 00:33N 51°53' W 007°04'1010.3
2014-Oct-22 23:34N 51°57' W 006°49'1010.3
2014-Oct-22 22:33N 52°01' W 006°34'10 9.8
2014-Oct-22 21:33N 52°05' W 006°19'8 8.5
2014-Oct-22 20:33N 52°10' W 006°08'8 8.0
2014-Oct-22 19:33N 52°17' W 006°05'9 8.6
2014-Oct-22 18:33N 52°26' W 006°04'8 7.8
2014-Oct-22 17:33N 52°34' W 006°03'70 9.9
2014-Oct-22 10:28N 53°44' W 006°00'9 9.8
2014-Oct-22 09:33N 53°53' W 006°01'9 8.9
2014-Oct-22 08:33N 54°02' W 006°05'  

Dump ship's entire track history